createdAt,value
2022-09-16T00:01:46.234Z,15.54
2022-09-16T00:04:48.099Z,15.44
2022-09-16T00:07:49.915Z,15.47
2022-09-16T00:10:52.172Z,15.46
2022-09-16T00:13:53.934Z,15.39
2022-09-16T00:16:57.045Z,15.43
2022-09-16T00:19:58.931Z,15.51
2022-09-16T00:23:00.594Z,15.47
2022-09-16T00:26:02.588Z,15.45
2022-09-16T00:29:04.224Z,15.23
2022-09-16T00:32:07.511Z,15.28
2022-09-16T00:35:09.452Z,15.06
2022-09-16T00:38:11.277Z,15.20
2022-09-16T00:41:16.777Z,15.20
2022-09-16T00:44:52.590Z,15.01
2022-09-16T00:47:59.510Z,15.02
2022-09-16T00:51:05.466Z,15.15
2022-09-16T00:54:09.967Z,15.14
2022-09-16T00:57:15.076Z,15.04
2022-09-16T01:00:17.648Z,15.10
2022-09-16T01:03:21.360Z,15.05
2022-09-16T01:06:26.375Z,15.08
2022-09-16T01:09:29.594Z,15.11
2022-09-16T01:12:33.327Z,15.01
2022-09-16T01:15:56.514Z,14.89
2022-09-16T01:19:10.311Z,14.87
2022-09-16T01:22:28.997Z,15.02
2022-09-16T01:25:43.333Z,14.82
2022-09-16T01:29:01.594Z,14.80
2022-09-16T01:32:13.064Z,15.01
2022-09-16T01:35:27.346Z,15.09
2022-09-16T01:38:41.805Z,15.02
2022-09-16T01:41:59.160Z,14.91
2022-09-16T01:45:06.057Z,14.89
2022-09-16T01:48:19.493Z,14.87
2022-09-16T01:51:26.810Z,14.82
2022-09-16T01:54:36.518Z,14.82
2022-09-16T01:57:45.100Z,14.93
2022-09-16T02:00:51.790Z,14.99
2022-09-16T02:04:00.046Z,15.02
2022-09-16T02:07:05.225Z,14.99
2022-09-16T02:10:13.264Z,14.93
2022-09-16T02:13:22.346Z,14.81
2022-09-16T02:16:35.089Z,14.92
2022-09-16T02:19:43.204Z,14.77
2022-09-16T02:22:48.467Z,14.94
2022-09-16T02:25:51.975Z,14.89
2022-09-16T02:28:55.872Z,14.81
2022-09-16T02:32:01.514Z,14.85
2022-09-16T02:35:09.087Z,14.82
2022-09-16T02:38:16.687Z,14.81
2022-09-16T02:41:18.416Z,14.95
2022-09-16T02:44:20.087Z,14.87
2022-09-16T02:47:30.277Z,14.97
2022-09-16T02:50:40.784Z,14.95
2022-09-16T02:53:48.599Z,14.91
2022-09-16T02:56:50.417Z,14.95
2022-09-16T02:59:52.079Z,14.99
2022-09-16T03:02:54.565Z,14.97
2022-09-16T03:06:19.206Z,14.98
2022-09-16T03:09:24.173Z,15.06
2022-09-16T03:13:32.610Z,14.98
2022-09-16T03:16:45.942Z,14.85
2022-09-16T03:19:59.777Z,14.84
2022-09-16T03:23:13.777Z,14.73
2022-09-16T03:26:24.215Z,14.82
2022-09-16T03:29:32.404Z,14.79
2022-09-16T03:32:37.771Z,14.79
2022-09-16T03:35:45.766Z,14.84
2022-09-16T03:38:49.931Z,14.61
2022-09-16T03:41:51.922Z,14.55
2022-09-16T03:44:53.629Z,14.69
2022-09-16T03:47:55.707Z,14.73
2022-09-16T03:50:57.299Z,14.64
2022-09-16T03:54:00.212Z,14.56
2022-09-16T03:57:02.176Z,14.40
2022-09-16T04:00:05.072Z,14.38
2022-09-16T04:03:13.283Z,14.53
2022-09-16T04:06:15.080Z,14.61
2022-09-16T04:09:18.260Z,14.44
2022-09-16T04:12:19.836Z,14.30
2022-09-16T04:15:21.446Z,14.34
2022-09-16T04:18:23.682Z,14.43
2022-09-16T04:21:26.196Z,14.43
2022-09-16T04:24:29.579Z,14.44
2022-09-16T04:27:31.229Z,14.45
2022-09-16T04:30:33.175Z,14.52
2022-09-16T04:33:35.727Z,14.40
2022-09-16T04:36:37.600Z,14.47
2022-09-16T04:39:41.259Z,14.40
2022-09-16T04:42:51.020Z,14.20
2022-09-16T04:45:52.746Z,14.32
2022-09-16T04:48:55.775Z,14.16
2022-09-16T04:51:57.433Z,14.39
2022-09-16T04:55:00.423Z,14.16
2022-09-16T04:58:02.166Z,14.10
2022-09-16T05:01:05.677Z,14.13
2022-09-16T05:04:07.901Z,14.16
2022-09-16T05:07:09.581Z,14.28
2022-09-16T05:10:12.655Z,14.16
2022-09-16T05:13:14.246Z,14.07
2022-09-16T05:16:17.535Z,14.29
2022-09-16T05:19:19.249Z,14.34
2022-09-16T05:22:23.281Z,14.23
2022-09-16T05:25:26.301Z,14.07
2022-09-16T05:28:28.293Z,14.18
2022-09-16T05:31:31.909Z,14.17
2022-09-16T05:34:36.795Z,14.13
2022-09-16T05:37:38.437Z,14.17
2022-09-16T05:40:41.454Z,14.15
2022-09-16T05:43:43.112Z,14.29
2022-09-16T05:46:44.758Z,14.44
2022-09-16T05:49:46.466Z,14.41
2022-09-16T05:52:48.153Z,14.34
2022-09-16T05:55:58.597Z,14.31
2022-09-16T05:59:00.848Z,14.32
2022-09-16T06:02:04.999Z,14.39
2022-09-16T06:05:07.330Z,14.48
2022-09-16T06:08:08.989Z,14.62
2022-09-16T06:11:12.939Z,14.59
2022-09-16T06:14:16.223Z,14.64
2022-09-16T06:17:17.834Z,14.77
2022-09-16T06:20:20.294Z,14.87
2022-09-16T06:23:22.548Z,14.69
2022-09-16T06:26:27.157Z,14.67
2022-09-16T06:29:28.836Z,14.84
2022-09-16T06:32:31.505Z,14.90
2022-09-16T06:35:37.661Z,14.95
2022-09-16T06:38:39.912Z,15.00
2022-09-16T06:41:43.629Z,15.02
2022-09-16T06:44:45.348Z,15.12
2022-09-16T06:47:47.141Z,15.09
2022-09-16T06:50:48.841Z,15.15
2022-09-16T06:53:51.726Z,15.29
2022-09-16T06:56:55.162Z,15.22
2022-09-16T06:59:56.924Z,15.37
2022-09-16T07:02:58.651Z,15.31
2022-09-16T07:06:01.841Z,15.27
2022-09-16T07:09:04.117Z,15.27
2022-09-16T07:12:08.154Z,15.18
2022-09-16T07:15:10.719Z,15.13
2022-09-16T07:18:12.379Z,15.14
2022-09-16T07:21:15.985Z,15.13
2022-09-16T07:24:17.964Z,15.24
2022-09-16T07:27:20.992Z,15.14
2022-09-16T07:30:23.246Z,15.19
2022-09-16T07:33:25.011Z,15.20
2022-09-16T07:36:28.448Z,15.27
2022-09-16T07:39:30.126Z,15.44
2022-09-16T07:42:33.531Z,15.28
2022-09-16T07:45:35.374Z,15.44
2022-09-16T07:48:37.621Z,15.53
2022-09-16T07:51:39.296Z,15.54
2022-09-16T07:54:40.907Z,15.59
2022-09-16T07:57:43.875Z,15.62
2022-09-16T08:00:48.417Z,15.64
2022-09-16T08:03:49.946Z,15.81
2022-09-16T08:06:51.529Z,15.92
2022-09-16T08:09:53.487Z,15.90
2022-09-16T08:12:57.400Z,15.89
2022-09-16T08:16:01.597Z,16.18
2022-09-16T08:19:03.538Z,16.04
2022-09-16T08:22:05.786Z,15.97
2022-09-16T08:25:08.032Z,16.04
2022-09-16T08:28:14.711Z,16.07
2022-09-16T08:31:17.518Z,16.10
2022-09-16T08:34:19.648Z,16.05
2022-09-16T08:37:21.295Z,15.96
2022-09-16T08:40:25.009Z,15.88
2022-09-16T08:43:36.657Z,16.06
2022-09-16T08:46:46.425Z,15.85
2022-09-16T08:49:51.032Z,15.88
2022-09-16T08:52:53.361Z,15.97
2022-09-16T08:55:55.660Z,15.91
2022-09-16T08:59:01.101Z,16.31
2022-09-16T09:02:22.767Z,16.44
2022-09-16T09:05:34.366Z,16.43
2022-09-16T09:08:45.567Z,16.51
2022-09-16T09:11:56.444Z,16.78
2022-09-16T09:15:13.789Z,16.73
2022-09-16T09:18:24.813Z,16.54
2022-09-16T09:21:35.370Z,16.48
2022-09-16T09:24:56.671Z,16.28
2022-09-16T09:28:12.571Z,16.28
2022-09-16T09:31:25.749Z,16.24
2022-09-16T09:34:42.184Z,16.07
2022-09-16T09:38:07.567Z,16.38
2022-09-16T09:41:12.879Z,16.41
2022-09-16T09:44:31.306Z,16.32
2022-09-16T09:47:42.005Z,16.53
2022-09-16T09:50:44.598Z,16.60
2022-09-16T09:53:53.633Z,16.66
2022-09-16T09:57:02.138Z,16.95
2022-09-16T10:00:11.981Z,17.40
2022-09-16T10:03:17.330Z,17.34
2022-09-16T10:06:26.037Z,17.09
2022-09-16T10:09:27.859Z,16.83
2022-09-16T10:12:31.500Z,16.88
2022-09-16T10:15:34.337Z,16.78
2022-09-16T10:18:37.839Z,17.11
2022-09-16T10:21:45.821Z,17.03
2022-09-16T10:24:54.731Z,17.17
2022-09-16T10:28:00.011Z,17.25
2022-09-16T10:31:02.585Z,17.35
2022-09-16T10:34:16.443Z,17.29
2022-09-16T10:37:20.024Z,17.44
2022-09-16T10:40:23.884Z,16.94
2022-09-16T10:43:28.783Z,16.95
2022-09-16T10:46:31.170Z,17.22
2022-09-16T10:49:39.478Z,17.23
2022-09-16T10:52:42.814Z,16.95
2022-09-16T10:55:44.463Z,16.93
2022-09-16T10:58:46.609Z,17.08
2022-09-16T11:01:56.233Z,17.27
2022-09-16T11:05:07.069Z,17.60
2022-09-16T11:08:14.143Z,17.46
2022-09-16T11:11:24.059Z,17.12
2022-09-16T11:14:38.730Z,17.53
2022-09-16T11:17:57.654Z,17.75
2022-09-16T11:21:15.285Z,17.66
2022-09-16T11:24:29.956Z,17.67
2022-09-16T11:27:42.881Z,17.72
2022-09-16T11:30:53.680Z,17.52
2022-09-16T11:34:05.738Z,17.43
2022-09-16T11:37:20.626Z,17.46
2022-09-16T11:40:33.901Z,17.61
2022-09-16T11:44:02.837Z,17.04
2022-09-16T11:47:12.513Z,16.16
2022-09-16T11:50:36.844Z,15.14
2022-09-16T11:53:57.307Z,14.84
2022-09-16T11:57:05.920Z,14.91
2022-09-16T12:00:13.306Z,14.69
2022-09-16T12:03:23.857Z,14.92
2022-09-16T12:06:30.799Z,14.99
2022-09-16T12:09:39.116Z,15.25
2022-09-16T12:12:46.051Z,15.89
2022-09-16T12:15:52.590Z,16.20
2022-09-16T12:18:59.603Z,16.64
2022-09-16T12:22:05.755Z,16.86
2022-09-16T12:25:15.929Z,16.60
2022-09-16T12:28:24.744Z,16.86
2022-09-16T12:31:33.514Z,16.60
2022-09-16T12:34:41.176Z,16.61
2022-09-16T12:37:48.275Z,16.66
2022-09-16T12:41:06.901Z,16.78
2022-09-16T12:44:37.516Z,16.99
2022-09-16T12:48:12.877Z,17.07
2022-09-16T12:51:24.706Z,17.35
2022-09-16T12:55:07.159Z,17.98
2022-09-16T12:58:28.844Z,18.21
2022-09-16T13:01:37.313Z,17.85
2022-09-16T13:04:43.684Z,17.66
2022-09-16T13:07:50.519Z,17.71
2022-09-16T13:11:19.995Z,17.89
2022-09-16T13:14:24.230Z,17.89
2022-09-16T13:17:31.069Z,17.98
2022-09-16T13:20:38.210Z,17.82
2022-09-16T13:23:44.950Z,17.59
2022-09-16T13:26:46.709Z,17.69
2022-09-16T13:29:49.882Z,17.53
2022-09-16T13:32:59.859Z,17.43
2022-09-16T13:36:30.442Z,17.21
2022-09-16T13:39:33.597Z,17.05
2022-09-16T13:42:35.383Z,17.00
2022-09-16T13:45:40.399Z,16.93
2022-09-16T13:48:49.234Z,16.09
2022-09-16T13:51:52.417Z,15.94
2022-09-16T13:55:12.291Z,15.63
2022-09-16T13:58:25.176Z,15.17
2022-09-16T14:01:58.351Z,15.15
2022-09-16T14:05:15.943Z,15.06
2022-09-16T14:08:26.754Z,15.18
2022-09-16T14:11:35.892Z,15.13
2022-09-16T14:14:53.153Z,14.87
2022-09-16T14:17:59.526Z,14.75
2022-09-16T14:21:02.864Z,15.11
2022-09-16T14:24:15.621Z,15.11
2022-09-16T14:27:23.553Z,15.17
2022-09-16T14:30:25.167Z,15.31
2022-09-16T14:33:34.860Z,15.42
2022-09-16T14:36:40.315Z,15.63
2022-09-16T14:39:43.754Z,15.84
2022-09-16T14:42:49.781Z,15.83
2022-09-16T14:45:55.080Z,15.88
2022-09-16T14:48:58.205Z,15.92
2022-09-16T14:52:04.733Z,16.00
2022-09-16T14:55:22.512Z,16.00
2022-09-16T14:58:27.767Z,16.02
2022-09-16T15:01:29.658Z,16.01
2022-09-16T15:04:37.186Z,16.17
2022-09-16T15:07:50.892Z,16.39
2022-09-16T15:11:19.493Z,16.57
2022-09-16T15:14:31.910Z,17.02
2022-09-16T15:17:33.675Z,16.91
2022-09-16T15:20:39.407Z,16.81
2022-09-16T15:23:46.347Z,16.64
2022-09-16T15:26:48.658Z,16.26
2022-09-16T15:29:56.717Z,16.14
2022-09-16T15:32:58.388Z,16.25
2022-09-16T15:36:02.912Z,16.24
2022-09-16T15:39:05.022Z,15.80
2022-09-16T15:42:12.061Z,14.94
2022-09-16T15:45:19.670Z,14.80
2022-09-16T15:48:21.504Z,13.97
2022-09-16T15:51:31.501Z,13.65
2022-09-16T15:54:37.895Z,13.38
2022-09-16T15:57:44.205Z,13.09
2022-09-16T16:01:00.302Z,13.11
2022-09-16T16:04:03.938Z,12.90
2022-09-16T16:07:07.986Z,13.08
2022-09-16T16:10:19.519Z,13.27
2022-09-16T16:13:21.608Z,13.04
2022-09-16T16:16:23.573Z,12.97
2022-09-16T16:19:26.142Z,13.11
2022-09-16T16:22:29.140Z,13.26
2022-09-16T16:25:30.861Z,13.18
2022-09-16T16:28:33.443Z,13.46
2022-09-16T16:31:37.018Z,13.27
2022-09-16T16:34:40.425Z,13.09
2022-09-16T16:37:47.662Z,13.06
2022-09-16T16:40:50.746Z,13.00
2022-09-16T16:43:52.367Z,13.01
2022-09-16T16:46:55.498Z,13.06
2022-09-16T16:49:57.879Z,13.10
2022-09-16T16:53:04.611Z,12.76
2022-09-16T16:57:23.797Z,12.55
2022-09-16T17:00:57.983Z,12.61
2022-09-16T17:04:11.095Z,12.55
2022-09-16T17:07:26.592Z,12.63
2022-09-16T17:10:55.770Z,12.40
2022-09-16T17:18:45.381Z,12.42
2022-09-16T17:22:13.428Z,12.49
2022-09-16T17:25:45.723Z,12.09
2022-09-16T17:29:15.872Z,12.13
2022-09-16T17:32:23.589Z,12.04
2022-09-16T17:35:32.858Z,11.70
2022-09-16T17:42:39.481Z,11.80
2022-09-16T17:45:52.450Z,11.91
2022-09-16T17:52:57.832Z,11.60
2022-09-16T17:59:58.615Z,11.43
2022-09-16T18:07:00.871Z,11.40
2022-09-16T18:10:55.626Z,11.34
2022-09-16T18:14:07.201Z,11.42
2022-09-16T18:17:22.228Z,11.47
2022-09-16T18:20:32.865Z,11.34
2022-09-16T18:24:33.562Z,11.43
2022-09-16T18:32:00.468Z,11.13
2022-09-16T18:39:00.794Z,11.21
2022-09-16T18:42:29.620Z,11.23
2022-09-16T18:45:34.545Z,11.28
2022-09-16T18:52:10.792Z,11.28
2022-09-16T18:59:20.020Z,11.22
2022-09-16T19:02:50.444Z,11.07
2022-09-16T19:06:01.251Z,11.19
2022-09-16T19:13:03.794Z,11.03
2022-09-16T19:16:17.911Z,11.11
2022-09-16T19:20:13.687Z,11.07
2022-09-16T19:23:20.720Z,11.13
2022-09-16T19:34:12.351Z,11.46
2022-09-16T19:37:40.704Z,11.28
2022-09-16T19:40:50.463Z,11.38
2022-09-16T19:44:19.819Z,11.23
2022-09-16T19:47:27.642Z,11.13
2022-09-16T19:51:22.643Z,11.11
2022-09-16T19:54:29.053Z,10.89
2022-09-16T19:57:57.973Z,10.84
2022-09-16T20:01:41.278Z,11.02
2022-09-16T20:04:46.695Z,10.94
2022-09-16T20:08:14.789Z,10.62
2022-09-16T20:11:22.677Z,10.63
2022-09-16T20:14:37.407Z,10.70
2022-09-16T20:17:52.496Z,10.48
2022-09-16T20:21:21.266Z,10.67
2022-09-16T20:24:28.448Z,10.68
2022-09-16T20:28:02.238Z,10.72
2022-09-16T20:31:34.731Z,10.70
2022-09-16T20:35:27.646Z,10.54
2022-09-16T20:38:37.754Z,10.52
2022-09-16T20:45:39.842Z,10.60
2022-09-16T20:48:54.536Z,10.64
2022-09-16T20:52:07.036Z,10.62
2022-09-16T20:55:14.054Z,10.67
2022-09-16T20:58:15.747Z,10.67
2022-09-16T21:01:20.466Z,10.69
2022-09-16T21:04:22.270Z,10.62
2022-09-16T21:07:23.920Z,10.57
2022-09-16T21:10:27.045Z,10.49
2022-09-16T21:13:28.745Z,10.40
2022-09-16T21:16:33.854Z,10.39
2022-09-16T21:19:35.558Z,10.25
2022-09-16T21:22:40.697Z,10.18
2022-09-16T21:25:44.198Z,10.14
2022-09-16T21:28:47.418Z,10.37
2022-09-16T21:31:49.523Z,10.42
2022-09-16T21:34:52.894Z,10.49
2022-09-16T21:37:54.531Z,10.24
2022-09-16T21:40:59.620Z,10.17
2022-09-16T21:44:01.796Z,10.24
2022-09-16T21:47:11.394Z,10.36
2022-09-16T21:50:13.122Z,10.17
2022-09-16T21:53:14.995Z,10.14
2022-09-16T21:56:20.028Z,10.03
2022-09-16T21:59:24.039Z,9.94
2022-09-16T22:02:29.000Z,9.99
2022-09-16T22:05:31.317Z,9.85
2022-09-16T22:08:33.245Z,10.03
2022-09-16T22:11:38.089Z,10.07
2022-09-16T22:14:39.730Z,10.09
2022-09-16T22:17:41.926Z,9.99
2022-09-16T22:20:45.970Z,10.03
2022-09-16T22:23:48.082Z,9.96
2022-09-16T22:26:51.700Z,10.01
2022-09-16T22:29:53.278Z,9.96
2022-09-16T22:32:54.915Z,9.91
2022-09-16T22:35:56.538Z,9.91
2022-09-16T22:39:04.796Z,9.86
2022-09-16T22:42:07.914Z,9.70
2022-09-16T22:45:10.141Z,9.94
2022-09-16T22:48:11.801Z,9.96
2022-09-16T22:51:15.744Z,9.97
2022-09-16T22:54:17.511Z,9.80
2022-09-16T22:57:20.532Z,9.97
2022-09-16T23:00:22.163Z,10.00
2022-09-16T23:03:23.904Z,10.12
2022-09-16T23:06:27.416Z,10.06
2022-09-16T23:09:29.105Z,10.01
2022-09-16T23:12:32.403Z,9.94
2022-09-16T23:15:37.234Z,9.71
2022-09-16T23:18:38.906Z,9.82
2022-09-16T23:21:43.743Z,9.84
2022-09-16T23:24:45.318Z,9.78
2022-09-16T23:27:48.831Z,9.57
2022-09-16T23:30:50.522Z,9.68
2022-09-16T23:33:53.481Z,9.74
2022-09-16T23:36:55.073Z,9.55
2022-09-16T23:39:57.009Z,9.45
2022-09-16T23:43:00.955Z,9.50
2022-09-16T23:46:03.152Z,9.45
2022-09-16T23:49:04.937Z,9.35
2022-09-16T23:52:06.526Z,9.45
2022-09-16T23:55:08.984Z,9.35
2022-09-16T23:58:12.078Z,9.28
